Time;durP1;ratioP1;P1;durP2;ratioP2;P2;SDS_P1;SDS_P2;PMS_P1;PMS_P2;Temp;Humidity;BMP_temperature;BMP_pressure;BME280_temperature;BME280_humidity;BME280_pressure;Samples;Min_cycle;Max_cycle;Signal;HPM_P1;HPM_P2
2024/01/25 00:01:11;;;;;;;25.92;16.50;;;;;;;-145.63;100.00;61273.97;5036540;28;20052;-66
2024/01/25 00:03:37;;;;;;;27.30;16.45;;;;;;;-145.63;100.00;61273.97;5034257;28;20030;-65
2024/01/25 00:06:04;;;;;;;25.52;16.60;;;;;;;-145.63;100.00;61273.97;5039385;28;20075;-65
2024/01/25 00:08:30;;;;;;;25.25;16.70;;;;;;;-145.63;100.00;61273.97;5032802;28;20040;-66
2024/01/25 00:10:56;;;;;;;26.50;17.15;;;;;;;-145.63;100.00;61273.97;5013821;28;20030;-66
2024/01/25 00:13:21;;;;;;;27.23;16.83;;;;;;;-145.63;100.00;61273.97;5031777;28;20561;-67
2024/01/25 00:15:47;;;;;;;29.45;18.45;;;;;;;-145.63;100.00;61273.97;5020410;28;20037;-65
2024/01/25 00:18:12;;;;;;;27.75;17.40;;;;;;;-145.63;100.00;61273.97;5054278;28;20056;-64
2024/01/25 00:20:38;;;;;;;31.65;17.75;;;;;;;-145.63;100.00;61273.97;5045673;28;20034;-66
2024/01/25 00:23:04;;;;;;;29.55;17.73;;;;;;;-145.63;100.00;61273.97;5033701;28;20029;-66
2024/01/25 00:25:29;;;;;;;28.35;18.95;;;;;;;-145.63;100.00;61273.97;5048528;28;20064;-65
2024/01/25 00:27:55;;;;;;;31.65;17.80;;;;;;;-145.63;100.00;61273.97;5033676;28;20489;-66
2024/01/25 00:30:21;;;;;;;30.00;18.10;;;;;;;-145.63;100.00;61273.97;5039512;28;20068;-66
2024/01/25 00:32:47;;;;;;;30.75;19.40;;;;;;;-145.63;100.00;61273.97;5032957;28;20030;-64
2024/01/25 00:35:14;;;;;;;27.80;17.05;;;;;;;-145.63;100.00;61273.97;5031977;28;20075;-64
2024/01/25 00:37:41;;;;;;;30.55;18.48;;;;;;;-145.63;100.00;61273.97;5013223;28;20104;-65
2024/01/25 00:40:08;;;;;;;29.20;18.23;;;;;;;-145.63;100.00;61273.97;5031501;28;20084;-64
2024/01/25 00:42:41;;;;;;;29.33;18.60;;;;;;;-145.63;100.00;61273.97;5031070;28;20026;-64
2024/01/25 00:45:07;;;;;;;33.40;18.17;;;;;;;-145.63;100.00;61273.97;5032065;28;20744;-64
2024/01/25 00:47:33;;;;;;;30.55;18.23;;;;;;;-145.63;100.00;61273.97;5032099;28;20029;-64
2024/01/25 00:49:59;;;;;;;30.48;17.52;;;;;;;-145.63;100.00;61273.97;5032240;28;20037;-65
2024/01/25 00:52:25;;;;;;;29.13;17.80;;;;;;;-145.63;100.00;61273.97;5031992;28;20095;-66
2024/01/25 00:54:51;;;;;;;24.83;17.08;;;;;;;-145.63;100.00;61273.97;5032201;28;20029;-65
2024/01/25 00:57:17;;;;;;;31.27;18.48;;;;;;;-145.63;100.00;61273.97;5031153;28;20480;-64
2024/01/25 00:59:43;;;;;;;29.08;18.20;;;;;;;-145.63;100.00;61273.97;5021520;28;20087;-65
2024/01/25 01:02:13;;;;;;;26.65;17.25;;;;;;;-145.63;100.00;61273.97;5031807;28;20312;-65
2024/01/25 01:04:40;;;;;;;30.35;17.25;;;;;;;-145.63;100.00;61273.97;5031620;28;20033;-64
2024/01/25 01:07:06;;;;;;;30.90;17.45;;;;;;;-145.63;100.00;61273.97;5032623;28;20041;-64
2024/01/25 01:09:32;;;;;;;29.75;16.92;;;;;;;-145.63;100.00;61273.97;5029810;28;20037;-64
2024/01/25 01:11:57;;;;;;;27.50;17.25;;;;;;;-145.63;100.00;61273.97;5032006;28;20030;-63
2024/01/25 01:14:23;;;;;;;28.33;17.25;;;;;;;-145.63;100.00;61273.97;5031495;28;20091;-65
2024/01/25 01:16:50;;;;;;;29.80;18.65;;;;;;;-145.63;100.00;61273.97;5038990;28;20127;-65
2024/01/25 01:19:16;;;;;;;27.73;17.08;;;;;;;-145.63;100.00;61273.97;5051413;28;20036;-66
2024/01/25 01:21:43;;;;;;;30.75;17.73;;;;;;;-145.63;100.00;61273.97;5034725;28;20026;-66
2024/01/25 01:24:11;;;;;;;30.48;16.67;;;;;;;-145.63;100.00;61273.97;5031557;28;20033;-67
2024/01/25 01:26:37;;;;;;;27.20;16.90;;;;;;;-145.63;100.00;61273.97;5030195;28;20045;-65
2024/01/25 01:29:03;;;;;;;26.65;15.77;;;;;;;-145.63;100.00;61273.97;5031500;28;20033;-69
2024/01/25 01:31:29;;;;;;;26.65;16.45;;;;;;;-145.63;100.00;61273.97;5022571;28;20032;-65
2024/01/25 01:33:54;;;;;;;27.70;16.92;;;;;;;-145.63;100.00;61273.97;5028832;28;20394;-66
2024/01/25 01:36:20;;;;;;;26.55;16.55;;;;;;;-145.63;100.00;61273.97;5021862;28;20046;-65
2024/01/25 01:38:46;;;;;;;27.42;16.42;;;;;;;-145.63;100.00;61273.97;5019167;28;20076;-67
2024/01/25 01:41:12;;;;;;;27.80;15.85;;;;;;;-145.63;100.00;61273.97;5031686;28;20037;-65
2024/01/25 01:43:38;;;;;;;29.10;16.40;;;;;;;-145.63;100.00;61273.97;5031127;28;20045;-64
2024/01/25 01:46:10;;;;;;;26.42;14.98;;;;;;;-145.63;100.00;61273.97;5031722;28;20033;-64
2024/01/25 01:48:37;;;;;;;23.48;14.65;;;;;;;-145.63;100.00;61273.97;5031602;28;20495;-65
2024/01/25 01:51:03;;;;;;;24.92;15.40;;;;;;;-145.63;100.00;61273.97;5032276;28;20030;-64
2024/01/25 01:53:28;;;;;;;22.23;13.77;;;;;;;-145.63;100.00;61273.97;5030209;28;20037;-64
2024/01/25 01:55:54;;;;;;;24.83;14.75;;;;;;;-145.63;100.00;61273.97;5031376;28;20034;-66
2024/01/25 01:58:21;;;;;;;25.25;13.85;;;;;;;-145.63;100.00;61273.97;5012307;28;20025;-66
2024/01/25 02:00:50;;;;;;;23.77;14.38;;;;;;;-145.63;100.00;61273.97;5026909;28;20033;-64
2024/01/25 02:03:16;;;;;;;25.13;13.82;;;;;;;-145.63;100.00;61273.97;5031956;28;20455;-64
2024/01/25 02:05:42;;;;;;;22.33;13.63;;;;;;;-145.63;100.00;61273.97;5031303;28;20036;-66
2024/01/25 02:08:09;;;;;;;22.10;13.30;;;;;;;-145.63;100.00;61273.97;5026286;28;20033;-65
2024/01/25 02:10:35;;;;;;;23.95;14.18;;;;;;;-145.63;100.00;61273.97;5033367;28;20099;-64
2024/01/25 02:13:00;;;;;;;21.33;14.10;;;;;;;-145.63;100.00;61273.97;5028096;28;20474;-64
2024/01/25 02:15:26;;;;;;;24.02;13.32;;;;;;;-145.63;100.00;61273.97;5029848;28;20073;-64
2024/01/25 02:17:52;;;;;;;21.23;12.18;;;;;;;-145.63;100.00;61273.97;5018702;28;20037;-64
2024/01/25 02:20:18;;;;;;;19.25;12.35;;;;;;;-145.63;100.00;61273.97;5018689;28;20109;-63
2024/01/25 02:22:44;;;;;;;20.33;12.77;;;;;;;-145.63;100.00;61273.97;5035437;28;20031;-63
2024/01/25 02:25:10;;;;;;;23.27;13.68;;;;;;;-145.63;100.00;61273.97;5035466;28;20112;-63
2024/01/25 02:27:38;;;;;;;23.33;12.65;;;;;;;-145.63;100.00;61273.97;5033805;28;20037;-63
2024/01/25 02:30:07;;;;;;;20.52;12.38;;;;;;;-145.63;100.00;61273.97;5035018;28;20118;-64
2024/01/25 02:32:33;;;;;;;19.55;13.00;;;;;;;-145.63;100.00;61273.97;5034723;28;20474;-62
2024/01/25 02:34:59;;;;;;;20.45;13.18;;;;;;;-145.63;100.00;61273.97;5034759;28;20040;-63
2024/01/25 02:37:25;;;;;;;21.55;13.52;;;;;;;-145.63;100.00;61273.97;5017437;28;20041;-62
2024/01/25 02:39:52;;;;;;;22.80;13.35;;;;;;;-145.63;100.00;61273.97;5030392;28;20091;-63
2024/01/25 02:42:18;;;;;;;20.08;13.00;;;;;;;-145.63;100.00;61273.97;5033595;28;20031;-64
2024/01/25 02:44:44;;;;;;;20.88;13.98;;;;;;;-145.63;100.00;61273.97;5035121;28;20116;-65
2024/01/25 02:47:10;;;;;;;23.52;14.07;;;;;;;-145.63;100.00;61273.97;5034958;28;20028;-65
2024/01/25 02:49:35;;;;;;;25.05;14.90;;;;;;;-145.63;100.00;61273.97;5035104;28;20060;-64
2024/01/25 02:52:02;;;;;;;25.88;14.90;;;;;;;-145.63;100.00;61273.97;5035090;28;20036;-66
2024/01/25 02:54:27;;;;;;;21.88;15.13;;;;;;;-145.63;100.00;61273.97;5036050;28;20040;-63
2024/01/25 02:56:53;;;;;;;23.50;14.15;;;;;;;-145.63;100.00;61273.97;5022646;28;20034;-64
2024/01/25 02:59:19;;;;;;;22.55;14.98;;;;;;;-145.63;100.00;61273.97;5015817;28;20040;-64
2024/01/25 03:01:45;;;;;;;23.20;14.27;;;;;;;-145.63;100.00;61273.97;5034154;28;20459;-64
2024/01/25 03:04:11;;;;;;;22.80;14.85;;;;;;;-145.63;100.00;61273.97;5034064;28;20390;-63
2024/01/25 03:06:37;;;;;;;26.63;16.08;;;;;;;-145.63;100.00;61273.97;5034221;28;20037;-63
2024/01/25 03:09:05;;;;;;;23.95;14.90;;;;;;;-145.63;100.00;61273.97;5032294;28;20083;-64
2024/01/25 03:11:31;;;;;;;26.15;14.55;;;;;;;-145.63;100.00;61273.97;5034120;28;20040;-66
2024/01/25 03:13:57;;;;;;;21.15;13.95;;;;;;;-145.63;100.00;61273.97;5032799;28;20394;-64
2024/01/25 03:16:23;;;;;;;21.83;14.05;;;;;;;-145.63;100.00;61273.97;5011664;28;20033;-64
2024/01/25 03:18:49;;;;;;;21.92;13.57;;;;;;;-145.63;100.00;61273.97;5026111;28;20029;-65
2024/01/25 03:21:14;;;;;;;21.90;13.90;;;;;;;-145.63;100.00;61273.97;5029761;28;20156;-65
2024/01/25 03:23:40;;;;;;;21.67;13.65;;;;;;;-145.63;100.00;61273.97;5023436;28;20471;-65
2024/01/25 03:26:06;;;;;;;20.05;13.00;;;;;;;-145.63;100.00;61273.97;5033352;28;20112;-64
2024/01/25 03:28:35;;;;;;;23.13;14.32;;;;;;;-145.63;100.00;61273.97;5033508;28;20496;-65
2024/01/25 03:31:00;;;;;;;23.30;14.23;;;;;;;-145.63;100.00;61273.97;5033761;28;20033;-65
2024/01/25 03:33:28;;;;;;;23.13;13.80;;;;;;;-145.63;100.00;61273.97;5033819;28;20082;-65
2024/01/25 03:35:53;;;;;;;20.80;12.57;;;;;;;-145.63;100.00;61273.97;5033052;28;20100;-66
2024/01/25 03:38:19;;;;;;;19.85;12.88;;;;;;;-145.63;100.00;61273.97;5030829;28;20050;-67
2024/01/25 03:40:45;;;;;;;21.08;13.52;;;;;;;-145.63;100.00;61273.97;5014496;28;20041;-65
2024/01/25 03:43:10;;;;;;;22.50;14.05;;;;;;;-145.63;100.00;61273.97;5029980;28;20029;-65
2024/01/25 03:45:36;;;;;;;19.10;11.07;;;;;;;-145.63;100.00;61273.97;5033191;28;20356;-65
2024/01/25 03:48:02;;;;;;;19.33;13.45;;;;;;;-145.63;100.00;61273.97;5033664;28;20037;-65
2024/01/25 03:50:27;;;;;;;18.38;12.27;;;;;;;-145.63;100.00;61273.97;5033827;28;20021;-68
2024/01/25 03:52:53;;;;;;;21.73;12.18;;;;;;;-145.63;100.00;61273.97;5033379;28;20360;-66
2024/01/25 03:55:19;;;;;;;19.58;12.10;;;;;;;-145.63;100.00;61273.97;5033615;28;20032;-65
2024/01/25 03:57:45;;;;;;;17.92;11.52;;;;;;;-145.63;100.00;61273.97;5034560;28;20057;-65
2024/01/25 04:00:11;;;;;;;19.50;11.85;;;;;;;-145.63;100.00;61273.97;5032197;28;20044;-64
2024/01/25 04:02:37;;;;;;;18.13;12.07;;;;;;;-145.63;100.00;61273.97;5032838;28;20475;-62
2024/01/25 04:05:06;;;;;;;18.50;12.45;;;;;;;-145.63;100.00;61273.97;5033952;28;20032;-64
2024/01/25 04:07:31;;;;;;;19.58;12.65;;;;;;;-145.63;100.00;61273.97;5045595;28;20030;-62
2024/01/25 04:10:26;;;;;;;21.08;12.80;;;;;;;-145.63;100.00;61273.97;5031529;28;20079;-65
2024/01/25 04:12:52;;;;;;;16.55;11.68;;;;;;;-145.63;100.00;61273.97;5029336;28;20510;-63
2024/01/25 04:15:18;;;;;;;17.20;11.82;;;;;;;-145.63;100.00;61273.97;5032817;28;20069;-63
2024/01/25 04:17:43;;;;;;;18.95;11.65;;;;;;;-145.63;100.00;61273.97;5033664;28;20475;-63
2024/01/25 04:20:10;;;;;;;17.35;11.40;;;;;;;-145.63;100.00;61273.97;5033589;28;20026;-63
2024/01/25 04:22:38;;;;;;;22.80;12.05;;;;;;;-145.63;100.00;61273.97;5014657;28;20041;-63
2024/01/25 04:25:06;;;;;;;21.10;12.32;;;;;;;-145.63;100.00;61273.97;5028864;28;20037;-64
2024/01/25 04:27:32;;;;;;;15.38;11.07;;;;;;;-145.63;100.00;61273.97;5033067;28;20038;-63
2024/01/25 04:29:58;;;;;;;17.08;12.15;;;;;;;-145.63;100.00;61273.97;5033259;28;20040;-62
2024/01/25 04:32:24;;;;;;;22.08;13.13;;;;;;;-145.63;100.00;61273.97;5032946;28;20471;-63
2024/01/25 04:34:49;;;;;;;17.33;12.07;;;;;;;-145.63;100.00;61273.97;5031709;28;20048;-64
2024/01/25 04:37:15;;;;;;;21.15;12.52;;;;;;;-145.63;100.00;61273.97;5032844;28;20049;-64
2024/01/25 04:39:41;;;;;;;19.92;13.15;;;;;;;-145.63;100.00;61273.97;5032809;28;20051;-62
2024/01/25 04:42:08;;;;;;;18.13;12.82;;;;;;;-145.63;100.00;61273.97;5027021;28;20030;-63
2024/01/25 04:44:33;;;;;;;20.20;11.30;;;;;;;-145.63;100.00;61273.97;5032134;28;20061;-64
2024/01/25 04:47:00;;;;;;;22.60;12.75;;;;;;;-145.63;100.00;61273.97;5032522;28;20398;-64
2024/01/25 04:49:26;;;;;;;19.10;11.95;;;;;;;-145.63;100.00;61273.97;5032437;28;20123;-63
2024/01/25 04:51:51;;;;;;;17.60;12.30;;;;;;;-145.63;100.00;61273.97;5032068;28;20036;-63
2024/01/25 04:54:17;;;;;;;20.38;12.25;;;;;;;-145.63;100.00;61273.97;5022324;28;20052;-64
2024/01/25 04:56:44;;;;;;;19.55;12.70;;;;;;;-145.63;100.00;61273.97;5030250;28;20061;-62
2024/01/25 04:59:10;;;;;;;19.23;12.77;;;;;;;-145.63;100.00;61273.97;5033172;28;20383;-63
2024/01/25 05:01:35;;;;;;;20.55;13.82;;;;;;;-145.63;100.00;61273.97;5034274;28;20044;-62
2024/01/25 05:04:01;;;;;;;21.23;12.57;;;;;;;-145.63;100.00;61273.97;5028514;28;20032;-63
2024/01/25 05:06:27;;;;;;;19.38;12.55;;;;;;;-145.63;100.00;61273.97;5025654;28;20037;-62
2024/01/25 05:08:53;;;;;;;18.50;13.07;;;;;;;-145.63;100.00;61273.97;5026120;28;20451;-63
2024/01/25 05:11:19;;;;;;;18.67;13.18;;;;;;;-145.63;100.00;61273.97;5029970;28;20026;-62
2024/01/25 05:13:44;;;;;;;18.98;13.45;;;;;;;-145.63;100.00;61273.97;5027456;28;20037;-63
2024/01/25 05:16:11;;;;;;;20.63;13.30;;;;;;;-145.63;100.00;61273.97;5031232;28;20033;-63
2024/01/25 05:18:37;;;;;;;19.17;13.95;;;;;;;-145.63;100.00;61273.97;5031644;28;20387;-64
2024/01/25 05:21:02;;;;;;;20.23;13.18;;;;;;;-145.63;100.00;61273.97;5031749;28;20040;-64
2024/01/25 05:23:28;;;;;;;21.45;13.60;;;;;;;-145.63;100.00;61273.97;5028687;28;20058;-64
2024/01/25 05:25:54;;;;;;;20.70;13.60;;;;;;;-145.63;100.00;61273.97;5012525;28;20065;-65
2024/01/25 05:28:19;;;;;;;23.65;14.73;;;;;;;-145.63;100.00;61273.97;5029875;28;20486;-65
2024/01/25 05:30:45;;;;;;;21.13;14.25;;;;;;;-145.63;100.00;61273.97;5030418;28;20039;-64
2024/01/25 05:33:11;;;;;;;20.13;14.25;;;;;;;-145.63;100.00;61273.97;5032172;28;20363;-63
2024/01/25 05:35:36;;;;;;;20.95;14.13;;;;;;;-145.63;100.00;61273.97;5031497;28;20165;-64
2024/01/25 05:38:02;;;;;;;18.40;13.45;;;;;;;-145.63;100.00;61273.97;5022934;28;20049;-64
2024/01/25 05:40:28;;;;;;;23.90;15.13;;;;;;;-145.63;100.00;61273.97;5030897;28;20482;-62
2024/01/25 05:42:53;;;;;;;21.60;14.75;;;;;;;-145.63;100.00;61273.97;5031765;28;20025;-63
2024/01/25 05:45:21;;;;;;;24.55;14.93;;;;;;;-145.63;100.00;61273.97;5025628;28;20026;-62
2024/01/25 05:47:50;;;;;;;20.73;14.32;;;;;;;-145.63;100.00;61273.97;5023802;28;20493;-65
2024/01/25 05:50:16;;;;;;;22.92;14.45;;;;;;;-145.63;100.00;61273.97;5038302;28;20125;-65
2024/01/25 05:52:42;;;;;;;20.55;13.90;;;;;;;-145.63;100.00;61273.97;5038061;28;20681;-63
2024/01/25 05:55:08;;;;;;;22.85;15.52;;;;;;;-145.63;100.00;61273.97;5022115;28;20034;-65
2024/01/25 05:57:36;;;;;;;24.02;14.90;;;;;;;-145.63;100.00;61273.97;5029999;28;20044;-64
2024/01/25 06:00:03;;;;;;;21.50;14.80;;;;;;;-145.63;100.00;61273.97;5031831;28;20034;-64
2024/01/25 06:02:29;;;;;;;21.95;15.48;;;;;;;-145.63;100.00;61273.97;5036600;28;20482;-63
2024/01/25 06:04:58;;;;;;;21.10;14.20;;;;;;;-145.63;100.00;61273.97;5037827;28;20124;-63
2024/01/25 06:07:24;;;;;;;23.25;14.88;;;;;;;-145.63;100.00;61273.97;5038018;28;20033;-64
2024/01/25 06:09:50;;;;;;;20.92;13.90;;;;;;;-145.63;100.00;61273.97;5034874;28;20021;-64
2024/01/25 06:12:16;;;;;;;23.25;14.65;;;;;;;-145.63;100.00;61273.97;5036315;28;20043;-64
2024/01/25 06:14:42;;;;;;;21.05;15.40;;;;;;;-145.63;100.00;61273.97;5038264;28;20417;-63
2024/01/25 06:17:07;;;;;;;21.80;14.02;;;;;;;-145.63;100.00;61273.97;5048825;28;20100;-64
2024/01/25 06:19:34;;;;;;;21.08;14.80;;;;;;;-145.63;100.00;61273.97;5039215;28;20110;-64
2024/01/25 06:22:00;;;;;;;21.42;14.75;;;;;;;-145.63;100.00;61273.97;5037830;28;20614;-65
2024/01/25 06:24:26;;;;;;;21.67;14.18;;;;;;;-145.63;100.00;61273.97;5031859;28;20041;-63
2024/01/25 06:26:53;;;;;;;19.63;13.27;;;;;;;-145.63;100.00;61273.97;5036535;28;20048;-63
2024/01/25 06:29:19;;;;;;;23.50;15.02;;;;;;;-145.63;100.00;61273.97;5019065;28;20033;-62
2024/01/25 06:31:45;;;;;;;23.25;16.08;;;;;;;-145.63;100.00;61273.97;5037855;28;20036;-62
2024/01/25 06:34:11;;;;;;;22.80;13.88;;;;;;;-145.63;100.00;61273.97;5037529;28;20136;-63
2024/01/25 06:36:37;;;;;;;24.42;14.77;;;;;;;-145.63;100.00;61273.97;5037103;28;20427;-63
2024/01/25 06:39:06;;;;;;;20.17;13.73;;;;;;;-145.63;100.00;61273.97;5037520;28;20049;-64
2024/01/25 06:41:32;;;;;;;19.95;14.30;;;;;;;-145.63;100.00;61273.97;5039184;28;20052;-63
2024/01/25 06:43:59;;;;;;;21.67;13.95;;;;;;;-145.63;100.00;61273.97;5036910;28;20025;-64
2024/01/25 06:46:25;;;;;;;21.08;14.73;;;;;;;-145.63;100.00;61273.97;5038041;28;20033;-63
2024/01/25 06:48:51;;;;;;;20.77;14.20;;;;;;;-145.63;100.00;61273.97;5037980;28;20377;-63
2024/01/25 06:51:17;;;;;;;19.77;13.38;;;;;;;-145.63;100.00;61273.97;5037195;28;20033;-63
2024/01/25 06:53:43;;;;;;;21.40;14.15;;;;;;;-145.63;100.00;61273.97;5037699;28;20026;-63
2024/01/25 06:56:08;;;;;;;20.30;13.48;;;;;;;-145.63;100.00;61273.97;5035243;28;20076;-64
2024/01/25 06:58:34;;;;;;;19.80;12.98;;;;;;;-145.63;100.00;61273.97;5034184;28;20087;-63
2024/01/25 07:01:00;;;;;;;18.48;13.07;;;;;;;-145.63;100.00;61273.97;5034100;28;20084;-63
2024/01/25 07:03:26;;;;;;;20.40;13.77;;;;;;;-145.63;100.00;61273.97;5034378;28;20079;-64
2024/01/25 07:05:51;;;;;;;19.15;12.88;;;;;;;-145.63;100.00;61273.97;5033089;28;20448;-63
2024/01/25 07:08:17;;;;;;;19.42;12.85;;;;;;;-145.63;100.00;61273.97;5030048;28;20053;-63
2024/01/25 07:10:44;;;;;;;19.77;13.20;;;;;;;-145.63;100.00;61273.97;5030162;28;20487;-64
2024/01/25 07:13:10;;;;;;;18.88;12.65;;;;;;;-145.63;100.00;61273.97;5024923;28;20025;-64
2024/01/25 07:15:36;;;;;;;18.50;12.50;;;;;;;-145.63;100.00;61273.97;5025290;28;20436;-63
2024/01/25 07:18:02;;;;;;;17.33;12.02;;;;;;;-145.63;100.00;61273.97;5024392;28;20049;-63
2024/01/25 07:20:27;;;;;;;18.25;12.48;;;;;;;-145.63;100.00;61273.97;5026523;28;20032;-63
2024/01/25 07:22:53;;;;;;;18.60;12.93;;;;;;;-145.63;100.00;61273.97;5032858;28;20036;-64
2024/01/25 07:25:19;;;;;;;23.77;12.63;;;;;;;-145.63;100.00;61273.97;5030684;28;20030;-62
2024/01/25 07:27:46;;;;;;;22.65;13.13;;;;;;;-145.63;100.00;61273.97;5031768;28;20064;-63
2024/01/25 07:30:12;;;;;;;20.02;13.07;;;;;;;-145.63;100.00;61273.97;5031982;28;20088;-62
2024/01/25 07:32:41;;;;;;;17.85;11.15;;;;;;;-145.63;100.00;61273.97;5029444;28;20079;-64
2024/01/25 07:35:07;;;;;;;19.90;13.05;;;;;;;-145.63;100.00;61273.97;5024496;28;20390;-63
2024/01/25 07:37:33;;;;;;;19.90;13.73;;;;;;;-145.63;100.00;61273.97;5024658;28;20073;-63
2024/01/25 07:39:59;;;;;;;17.20;12.00;;;;;;;-145.63;100.00;61273.97;5029390;28;20492;-64
2024/01/25 07:42:24;;;;;;;26.20;16.85;;;;;;;-145.63;100.00;61273.97;5029565;28;20035;-64
2024/01/25 07:44:50;;;;;;;18.52;12.25;;;;;;;-145.63;100.00;61273.97;5028902;28;20057;-64
2024/01/25 07:47:15;;;;;;;19.13;12.15;;;;;;;-145.63;100.00;61273.97;5029855;28;20064;-62
2024/01/25 07:49:41;;;;;;;17.67;12.45;;;;;;;-145.63;100.00;61273.97;5030579;28;20057;-64
2024/01/25 07:52:07;;;;;;;18.00;11.38;;;;;;;-145.63;100.00;61273.97;5029678;28;20036;-62
2024/01/25 07:54:33;;;;;;;18.75;11.80;;;;;;;-145.63;100.00;61273.97;5030976;28;20108;-62
2024/01/25 07:56:58;;;;;;;17.70;12.02;;;;;;;-145.63;100.00;61273.97;5026573;28;20037;-63
2024/01/25 07:59:24;;;;;;;19.15;12.18;;;;;;;-145.63;100.00;61273.97;5022472;28;20040;-63
2024/01/25 08:01:50;;;;;;;18.75;12.43;;;;;;;-145.63;100.00;61273.97;5022037;28;20033;-64
2024/01/25 08:04:16;;;;;;;15.63;11.23;;;;;;;-145.63;100.00;61273.97;5024121;28;20461;-64
2024/01/25 08:06:41;;;;;;;17.25;11.45;;;;;;;-145.63;100.00;61273.97;5023855;28;20109;-63
2024/01/25 08:09:08;;;;;;;16.52;11.73;;;;;;;-145.63;100.00;61273.97;5029087;28;20502;-63
2024/01/25 08:11:35;;;;;;;16.52;11.35;;;;;;;-145.63;100.00;61273.97;5032966;28;20463;-65
2024/01/25 08:14:00;;;;;;;18.85;11.45;;;;;;;-145.63;100.00;61273.97;5033340;28;20025;-64
2024/01/25 08:16:26;;;;;;;19.20;11.95;;;;;;;-145.63;100.00;61273.97;5037796;28;20033;-63
2024/01/25 08:18:52;;;;;;;17.88;12.40;;;;;;;-145.63;100.00;61273.97;5052985;28;20104;-66
2024/01/25 08:21:17;;;;;;;17.50;11.82;;;;;;;-145.63;100.00;61273.97;5043334;28;20022;-64
2024/01/25 08:23:43;;;;;;;18.92;11.55;;;;;;;-145.63;100.00;61273.97;5030950;28;20071;-64
2024/01/25 08:26:09;;;;;;;17.23;10.85;;;;;;;-145.63;100.00;61273.97;5024628;28;20053;-64
2024/01/25 08:28:36;;;;;;;17.88;11.73;;;;;;;-145.63;100.00;61273.97;5026696;28;20450;-63
2024/01/25 08:31:04;;;;;;;15.13;10.50;;;;;;;-145.63;100.00;61273.97;5023839;28;20031;-64
2024/01/25 08:33:30;;;;;;;17.83;11.65;;;;;;;-145.63;100.00;61273.97;5025241;28;20037;-63
2024/01/25 08:35:56;;;;;;;19.77;11.43;;;;;;;-145.63;100.00;61273.97;5023562;28;20045;-64
2024/01/25 08:38:22;;;;;;;15.60;11.25;;;;;;;-145.63;100.00;61273.97;5020929;28;20037;-65
2024/01/25 08:40:47;;;;;;;19.55;11.38;;;;;;;-145.63;100.00;61273.97;5024302;28;20144;-62
2024/01/25 08:43:13;;;;;;;18.73;12.10;;;;;;;-145.63;100.00;61273.97;5028698;28;20033;-63
2024/01/25 08:45:38;;;;;;;21.13;12.20;;;;;;;-145.63;100.00;61273.97;5024471;28;20133;-62
2024/01/25 08:48:05;;;;;;;15.73;11.38;;;;;;;-145.63;100.00;61273.97;5029584;28;20108;-62
2024/01/25 08:50:31;;;;;;;20.33;12.30;;;;;;;-145.63;100.00;61273.97;5030877;28;20096;-64
2024/01/25 08:52:57;;;;;;;18.75;12.18;;;;;;;-145.63;100.00;61273.97;5026256;28;20037;-62
2024/01/25 08:55:22;;;;;;;17.27;12.27;;;;;;;-145.63;100.00;61273.97;5028975;28;20025;-63
2024/01/25 08:57:49;;;;;;;18.23;12.57;;;;;;;-145.63;100.00;61273.97;5025713;28;20029;-66
2024/01/25 09:00:15;;;;;;;18.80;12.45;;;;;;;-145.63;100.00;61273.97;5022446;28;20068;-65
2024/01/25 09:02:42;;;;;;;20.08;11.55;;;;;;;-145.63;100.00;61273.97;5021758;28;20037;-65
2024/01/25 09:05:08;;;;;;;15.75;11.13;;;;;;;-145.63;100.00;61273.97;5021309;28;20045;-66
2024/01/25 09:07:34;;;;;;;18.00;12.55;;;;;;;-145.63;100.00;61273.97;5025271;28;20144;-69
2024/01/25 09:10:01;;;;;;;19.40;12.77;;;;;;;-145.63;100.00;61273.97;5022995;28;20084;-68
2024/01/25 09:12:29;;;;;;;21.58;11.93;;;;;;;-145.63;100.00;61273.97;5024890;28;20117;-64
2024/01/25 09:14:55;;;;;;;19.92;12.32;;;;;;;-145.63;100.00;61273.97;5028310;28;20458;-68
2024/01/25 09:17:24;;;;;;;17.80;11.38;;;;;;;-145.63;100.00;61273.97;5026457;28;20109;-66
2024/01/25 09:19:51;;;;;;;19.67;12.25;;;;;;;-145.63;100.00;61273.97;5023474;28;20060;-70
2024/01/25 09:22:19;;;;;;;20.75;12.25;;;;;;;-145.63;100.00;61273.97;5025500;28;20040;-65
2024/01/25 09:24:48;;;;;;;19.92;12.93;;;;;;;-145.63;100.00;61273.97;5025078;28;20034;-66
2024/01/25 09:27:14;;;;;;;16.95;12.43;;;;;;;-145.63;100.00;61273.97;5024599;28;20082;-64
2024/01/25 09:29:41;;;;;;;18.85;11.88;;;;;;;-145.63;100.00;61273.97;5030310;28;20570;-64
2024/01/25 09:32:08;;;;;;;18.52;12.35;;;;;;;-145.63;100.00;61273.97;5032621;28;20037;-64
2024/01/25 09:34:37;;;;;;;17.33;11.50;;;;;;;-145.63;100.00;61273.97;5032215;28;20025;-65
2024/01/25 09:37:04;;;;;;;17.27;11.32;;;;;;;-145.63;100.00;61273.97;5031956;28;20076;-64
2024/01/25 09:39:30;;;;;;;19.50;12.23;;;;;;;-145.63;100.00;61273.97;5030878;28;20037;-65
2024/01/25 09:41:56;;;;;;;20.58;12.68;;;;;;;-145.63;100.00;61273.97;5022465;28;20029;-64
2024/01/25 09:44:22;;;;;;;17.38;11.60;;;;;;;-145.63;100.00;61273.97;5031351;28;20068;-65
2024/01/25 09:46:48;;;;;;;19.50;12.50;;;;;;;-145.63;100.00;61273.97;5031598;28;20144;-66
2024/01/25 09:49:14;;;;;;;18.17;12.60;;;;;;;-145.63;100.00;61273.97;5026774;28;20041;-65
2024/01/25 09:51:41;;;;;;;18.33;12.15;;;;;;;-145.63;100.00;61273.97;5027690;28;20029;-65
2024/01/25 09:54:08;;;;;;;20.23;13.30;;;;;;;-145.63;100.00;61273.97;5024801;28;20141;-66
2024/01/25 09:56:35;;;;;;;23.33;12.63;;;;;;;-145.63;100.00;61273.97;5026587;28;20479;-66
2024/01/25 09:59:02;;;;;;;23.52;13.38;;;;;;;-145.63;100.00;61273.97;5025291;28;20037;-66
2024/01/25 10:01:28;;;;;;;22.08;13.40;;;;;;;-145.63;100.00;61273.97;5028292;28;20029;-64
2024/01/25 10:03:56;;;;;;;19.30;12.65;;;;;;;-145.63;100.00;61273.97;5025600;28;20057;-68
2024/01/25 10:06:22;;;;;;;24.98;13.38;;;;;;;-145.63;100.00;61273.97;5021888;28;20053;-68
2024/01/25 10:08:48;;;;;;;21.52;13.50;;;;;;;-145.63;100.00;61273.97;5023146;28;20047;-65
2024/01/25 10:11:15;;;;;;;20.30;13.50;;;;;;;-145.63;100.00;61273.97;5021994;28;20477;-64
2024/01/25 10:13:43;;;;;;;20.60;12.75;;;;;;;-145.63;100.00;61273.97;5024677;28;20025;-65
2024/01/25 10:16:14;;;;;;;20.55;13.50;;;;;;;-145.63;100.00;61273.97;5023224;28;20052;-64
2024/01/25 10:18:44;;;;;;;20.42;12.95;;;;;;;-145.63;100.00;61273.97;5019893;28;20032;-63
2024/01/25 10:21:10;;;;;;;19.35;13.82;;;;;;;-145.63;100.00;61273.97;5018139;28;20501;-65
2024/01/25 10:23:37;;;;;;;19.65;13.00;;;;;;;-145.63;100.00;61273.97;5031220;28;20082;-65
2024/01/25 10:26:03;;;;;;;21.38;12.80;;;;;;;-145.63;100.00;61273.97;5028292;28;20049;-66
2024/01/25 10:28:30;;;;;;;20.30;12.90;;;;;;;-145.63;100.00;61273.97;5030670;28;20064;-67
2024/01/25 10:31:04;;;;;;;22.50;14.20;;;;;;;-145.63;100.00;61273.97;5029999;28;20367;-65
2024/01/25 10:33:30;;;;;;;18.17;12.13;;;;;;;-145.63;100.00;61273.97;5033212;28;20029;-65
2024/01/25 10:36:01;;;;;;;20.80;12.63;;;;;;;-145.63;100.00;61273.97;5031857;28;20045;-65
2024/01/25 10:38:32;;;;;;;20.90;12.75;;;;;;;-145.63;100.00;61273.97;5026455;28;20026;-66
2024/01/25 10:41:02;;;;;;;17.33;12.15;;;;;;;-145.63;100.00;61273.97;5024227;28;20148;-64
2024/01/25 10:43:30;;;;;;;25.48;14.40;;;;;;;-145.63;100.00;61273.97;5032715;28;20068;-64
2024/01/25 10:45:58;;;;;;;19.27;13.10;;;;;;;-145.63;100.00;61273.97;5029163;28;20125;-65
2024/01/25 10:48:31;;;;;;;17.92;12.70;;;;;;;-145.63;100.00;61273.97;5028724;28;20069;-66
2024/01/25 10:50:59;;;;;;;21.25;13.10;;;;;;;-145.63;100.00;61273.97;5022272;28;20112;-66